createdAt,value
2018-05-17T00:01:04.142Z,11.08
2018-05-17T00:03:42.278Z,11.04
2018-05-17T00:06:10.599Z,10.98
2018-05-17T00:08:41.745Z,10.85
2018-05-17T00:11:12.780Z,10.71
2018-05-17T00:13:43.915Z,10.66
2018-05-17T00:16:14.955Z,10.69
2018-05-17T00:18:45.964Z,10.75
2018-05-17T00:21:15.369Z,10.74
2018-05-17T00:23:48.143Z,10.72
2018-05-17T00:26:22.131Z,10.71
2018-05-17T00:29:02.786Z,10.75
2018-05-17T00:31:39.604Z,10.68
2018-05-17T00:34:11.664Z,10.57
2018-05-17T00:36:39.941Z,10.49
2018-05-17T00:39:13.481Z,10.46
2018-05-17T00:41:46.315Z,10.52
2018-05-17T00:44:18.376Z,10.59
2018-05-17T00:46:53.735Z,10.61
2018-05-17T00:49:27.873Z,10.61
2018-05-17T00:52:06.671Z,10.50
2018-05-17T00:54:42.547Z,10.36
2018-05-17T00:57:21.428Z,10.28
2018-05-17T00:59:53.529Z,10.26
2018-05-17T01:02:28.004Z,10.11
2018-05-17T01:05:02.198Z,10.05
2018-05-17T01:07:33.182Z,10.10
2018-05-17T01:10:01.470Z,10.12
2018-05-17T01:12:29.772Z,10.09
2018-05-17T01:15:05.192Z,9.95
2018-05-17T01:17:41.994Z,9.84
2018-05-17T01:20:13.015Z,9.74
2018-05-17T01:22:45.914Z,9.64
2018-05-17T01:25:18.571Z,9.58
2018-05-17T01:27:56.343Z,9.57
2018-05-17T01:30:28.321Z,9.59
2018-05-17T01:32:58.591Z,9.61
2018-05-17T01:35:39.799Z,9.70
2018-05-17T01:38:26.014Z,9.76
2018-05-17T01:41:15.791Z,9.91
2018-05-17T01:43:45.170Z,10.09
2018-05-17T01:46:15.456Z,10.26
2018-05-17T01:48:47.523Z,10.37
2018-05-17T01:51:17.515Z,10.46
2018-05-17T01:53:49.402Z,10.57
2018-05-17T01:56:18.662Z,10.70
2018-05-17T01:58:57.699Z,10.98
2018-05-17T02:01:30.803Z,11.10
2018-05-17T02:03:59.117Z,11.23
2018-05-17T02:06:40.514Z,11.30
2018-05-17T02:09:19.809Z,11.38
2018-05-17T02:11:51.552Z,11.40
2018-05-17T02:14:19.888Z,11.42
2018-05-17T02:16:49.338Z,11.41
2018-05-17T02:19:27.703Z,11.37
2018-05-17T02:21:56.035Z,11.30
2018-05-17T02:24:24.289Z,11.25
2018-05-17T02:26:56.439Z,11.15
2018-05-17T02:29:24.786Z,11.10
2018-05-17T02:31:58.842Z,11.07
2018-05-17T02:34:28.219Z,11.12
2018-05-17T02:36:56.798Z,11.17
2018-05-17T02:39:25.310Z,11.19
2018-05-17T02:41:58.551Z,11.23
2018-05-17T02:44:34.656Z,11.38
2018-05-17T02:47:08.099Z,11.52
2018-05-17T02:49:45.846Z,11.64
2018-05-17T02:52:20.638Z,11.72
2018-05-17T02:54:56.509Z,11.78
2018-05-17T02:57:36.293Z,11.79
2018-05-17T03:00:08.455Z,11.84
2018-05-17T03:02:41.320Z,11.88
2018-05-17T03:05:13.466Z,11.93
2018-05-17T03:07:44.535Z,11.99
2018-05-17T03:10:19.603Z,11.95
2018-05-17T03:12:49.958Z,11.97
2018-05-17T03:15:20.954Z,12.02
2018-05-17T03:17:50.305Z,12.07
2018-05-17T03:20:24.414Z,11.95
2018-05-17T03:23:01.544Z,11.99
2018-05-17T03:25:31.853Z,12.04
2018-05-17T03:28:07.019Z,12.00
2018-05-17T03:30:43.779Z,12.00
2018-05-17T03:33:16.902Z,11.97
2018-05-17T03:35:48.665Z,11.94
2018-05-17T03:38:16.935Z,11.88
2018-05-17T03:40:45.248Z,11.95
2018-05-17T03:43:17.059Z,11.95
2018-05-17T03:45:46.395Z,11.86
2018-05-17T03:48:15.459Z,11.79
2018-05-17T03:50:44.765Z,11.82
2018-05-17T03:53:23.171Z,11.77
2018-05-17T03:55:52.558Z,11.80
2018-05-17T03:58:24.675Z,11.80
2018-05-17T04:04:20.282Z,11.95
2018-05-17T04:06:54.566Z,11.94
2018-05-17T04:09:27.717Z,12.00
2018-05-17T04:11:58.732Z,11.99
2018-05-17T04:14:35.020Z,12.03
2018-05-17T04:17:03.527Z,12.24
2018-05-17T04:19:35.130Z,12.32
2018-05-17T04:22:04.451Z,12.36
2018-05-17T04:24:35.629Z,12.37
2018-05-17T04:27:16.758Z,12.31
2018-05-17T04:29:45.083Z,12.40
2018-05-17T04:32:37.619Z,12.37
2018-05-17T04:35:11.202Z,12.34
2018-05-17T04:37:43.279Z,12.32
2018-05-17T04:40:18.047Z,12.36
2018-05-17T04:42:51.587Z,12.34
2018-05-17T04:45:25.003Z,12.33
2018-05-17T04:47:54.347Z,12.43
2018-05-17T04:50:23.399Z,12.35
2018-05-17T04:52:56.681Z,12.35
2018-05-17T04:55:28.008Z,12.33
2018-05-17T04:57:57.607Z,12.29
2018-05-17T05:00:27.915Z,12.22
2018-05-17T05:02:56.297Z,12.14
2018-05-17T05:05:30.553Z,12.12
2018-05-17T05:08:05.362Z,12.08
2018-05-17T05:10:39.312Z,12.02
2018-05-17T05:13:13.059Z,12.01
2018-05-17T05:15:52.186Z,12.05
2018-05-17T05:18:39.018Z,11.94
2018-05-17T05:21:11.632Z,12.00
2018-05-17T05:23:40.938Z,12.13
2018-05-17T05:26:11.335Z,12.02
2018-05-17T05:28:58.386Z,11.98
2018-05-17T05:31:34.429Z,12.06
2018-05-17T05:34:03.762Z,12.09
2018-05-17T05:36:38.893Z,11.99
2018-05-17T05:39:13.071Z,12.00
2018-05-17T05:41:44.079Z,11.98
2018-05-17T05:44:14.442Z,12.00
2018-05-17T05:46:49.217Z,12.09
2018-05-17T05:49:18.548Z,12.04
2018-05-17T05:52:01.696Z,12.05
2018-05-17T05:54:38.283Z,12.07
2018-05-17T05:57:15.010Z,12.11
2018-05-17T05:59:45.334Z,12.31
2018-05-17T06:02:27.388Z,12.35
2018-05-17T06:04:58.410Z,12.48
2018-05-17T06:07:28.500Z,12.60
2018-05-17T06:09:56.752Z,12.48
2018-05-17T06:12:25.063Z,12.50
2018-05-17T06:14:55.367Z,12.57
2018-05-17T06:17:23.656Z,12.62
2018-05-17T06:19:58.254Z,12.81
2018-05-17T06:22:26.539Z,12.91
2018-05-17T06:24:54.812Z,12.90
2018-05-17T06:27:23.115Z,12.69
2018-05-17T06:29:51.368Z,12.70
2018-05-17T06:32:21.603Z,12.67
2018-05-17T06:34:50.956Z,12.63
2018-05-17T06:37:21.233Z,12.62
2018-05-17T06:40:12.955Z,12.63
2018-05-17T06:42:45.737Z,12.65
2018-05-17T06:45:21.181Z,12.64
2018-05-17T06:47:50.483Z,12.75
2018-05-17T06:50:22.053Z,12.78
2018-05-17T06:52:51.467Z,12.90
2018-05-17T06:55:20.713Z,12.86
2018-05-17T06:57:55.248Z,12.90
2018-05-17T07:00:24.808Z,12.77
2018-05-17T07:03:01.937Z,12.78
2018-05-17T07:05:48.355Z,12.91
2018-05-17T07:08:26.542Z,12.89
2018-05-17T07:11:09.015Z,12.83
2018-05-17T07:13:38.315Z,12.83
2018-05-17T07:16:08.378Z,12.88
2018-05-17T07:18:42.039Z,12.74
2018-05-17T07:21:19.355Z,12.79
2018-05-17T07:23:51.376Z,12.73
2018-05-17T07:26:22.362Z,12.74
2018-05-17T07:28:59.359Z,12.84
2018-05-17T07:31:35.888Z,12.72
2018-05-17T07:34:04.247Z,12.63
2018-05-17T07:36:40.338Z,12.83
2018-05-17T07:39:09.684Z,12.87
2018-05-17T07:44:42.696Z,13.04
2018-05-17T07:47:21.216Z,13.05
2018-05-17T07:49:53.280Z,13.48
2018-05-17T07:52:25.084Z,13.91
2018-05-17T07:54:53.403Z,13.85
2018-05-17T07:57:26.616Z,13.63
2018-05-17T07:59:55.792Z,13.32
2018-05-17T08:02:34.896Z,13.21
2018-05-17T08:05:04.767Z,13.08
2018-05-17T08:07:58.818Z,13.02
2018-05-17T08:10:27.065Z,13.00
2018-05-17T08:12:57.308Z,13.01
2018-05-17T08:15:31.056Z,13.02
2018-05-17T08:18:07.155Z,13.04
2018-05-17T08:20:40.187Z,13.11
2018-05-17T08:23:15.655Z,12.92
2018-05-17T08:26:01.933Z,12.95
2018-05-17T08:28:30.978Z,13.04
2018-05-17T08:31:29.115Z,12.96
2018-05-17T08:33:57.393Z,13.05
2018-05-17T08:36:39.042Z,13.19
2018-05-17T08:39:11.909Z,13.21
2018-05-17T08:41:54.998Z,13.13
2018-05-17T08:44:23.713Z,13.13
2018-05-17T08:46:52.051Z,13.03
2018-05-17T08:49:27.128Z,12.96
2018-05-17T08:51:57.622Z,13.17
2018-05-17T08:54:32.957Z,13.29
2018-05-17T08:57:11.517Z,13.15
2018-05-17T08:59:44.915Z,13.25
2018-05-17T09:02:18.839Z,13.47
2018-05-17T09:04:47.134Z,13.65
2018-05-17T09:07:15.403Z,13.93
2018-05-17T09:09:47.152Z,14.12
2018-05-17T09:12:29.511Z,14.10
2018-05-17T09:14:57.896Z,14.17
2018-05-17T09:17:33.199Z,13.89
2018-05-17T09:20:16.697Z,14.09
2018-05-17T09:22:44.995Z,14.33
2018-05-17T09:25:19.287Z,14.37
2018-05-17T09:28:01.652Z,14.47
2018-05-17T09:30:38.770Z,14.98
2018-05-17T09:33:12.123Z,15.08
2018-05-17T09:35:44.939Z,15.14
2018-05-17T09:38:23.375Z,15.45
2018-05-17T09:40:53.603Z,15.65
2018-05-17T09:43:21.869Z,15.37
2018-05-17T09:46:00.806Z,15.02
2018-05-17T09:48:29.109Z,15.17
2018-05-17T09:50:57.356Z,15.25
2018-05-17T09:53:29.160Z,15.39
2018-05-17T09:56:08.410Z,15.84
2018-05-17T09:58:43.896Z,15.93
2018-05-17T10:01:15.284Z,15.54
2018-05-17T10:03:44.360Z,15.47
2018-05-17T10:06:17.699Z,15.39
2018-05-17T10:08:46.190Z,15.38
2018-05-17T10:11:14.386Z,15.53
2018-05-17T10:14:01.268Z,15.15
2018-05-17T10:16:33.603Z,14.75
2018-05-17T10:19:13.928Z,14.87
2018-05-17T10:21:42.207Z,14.73
2018-05-17T10:27:16.038Z,14.83
2018-05-17T10:29:46.394Z,14.76
2018-05-17T10:32:17.391Z,14.79
2018-05-17T10:34:49.683Z,15.11
2018-05-17T10:37:19.691Z,15.09
2018-05-17T10:39:54.729Z,14.97
2018-05-17T10:42:24.030Z,15.02
2018-05-17T10:44:53.318Z,14.90
2018-05-17T10:47:35.470Z,14.77
2018-05-17T10:50:12.395Z,14.46
2018-05-17T10:52:46.534Z,14.46
2018-05-17T10:55:25.913Z,14.29
2018-05-17T10:57:56.215Z,14.30
2018-05-17T11:00:26.187Z,14.09
2018-05-17T11:02:55.503Z,14.13
2018-05-17T11:05:29.226Z,14.12
2018-05-17T11:07:59.585Z,14.30
2018-05-17T11:10:31.711Z,14.17
2018-05-17T11:13:13.941Z,14.11
2018-05-17T11:15:47.522Z,14.16
2018-05-17T11:18:16.791Z,14.09
2018-05-17T11:20:51.690Z,14.22
2018-05-17T11:23:20.021Z,14.02
2018-05-17T11:25:54.638Z,13.98
2018-05-17T11:28:37.073Z,14.34
2018-05-17T11:31:07.311Z,14.55
2018-05-17T11:33:37.735Z,14.51
2018-05-17T11:36:08.763Z,14.44
2018-05-17T11:38:37.832Z,14.48
2018-05-17T11:41:09.503Z,14.59
2018-05-17T11:43:41.223Z,14.87
2018-05-17T11:46:09.654Z,15.16
2018-05-17T11:48:40.711Z,15.54
2018-05-17T11:51:12.122Z,15.19
2018-05-17T11:53:54.761Z,15.03
2018-05-17T11:56:31.437Z,14.86
2018-05-17T11:59:04.195Z,14.33
2018-05-17T12:01:49.983Z,14.45
2018-05-17T12:04:22.955Z,14.93
2018-05-17T12:06:52.272Z,15.15
2018-05-17T12:09:21.363Z,15.05
2018-05-17T12:11:52.920Z,15.03
2018-05-17T12:14:21.453Z,15.19
2018-05-17T12:17:03.025Z,15.27
2018-05-17T12:19:34.133Z,15.12
2018-05-17T12:22:05.287Z,15.47
2018-05-17T12:24:44.272Z,15.66
2018-05-17T12:27:13.756Z,15.83
2018-05-17T12:29:45.153Z,15.75
2018-05-17T12:32:16.166Z,16.29
2018-05-17T12:34:44.556Z,16.60
2018-05-17T12:37:13.663Z,16.65
2018-05-17T12:39:46.368Z,16.77
2018-05-17T12:42:15.495Z,17.26
2018-05-17T12:44:50.671Z,18.57
2018-05-17T12:47:19.014Z,19.28
2018-05-17T12:49:49.328Z,19.06
2018-05-17T12:52:18.604Z,18.51
2018-05-17T12:54:48.386Z,18.04
2018-05-17T12:57:17.121Z,18.32
2018-05-17T12:59:52.222Z,18.02
2018-05-17T13:02:22.318Z,18.04
2018-05-17T13:04:52.446Z,18.29
2018-05-17T13:07:23.267Z,18.13
2018-05-17T13:09:52.400Z,19.20
2018-05-17T13:12:20.764Z,19.54
2018-05-17T13:14:53.379Z,20.45
2018-05-17T13:17:22.847Z,19.54
2018-05-17T13:19:53.838Z,19.87
2018-05-17T13:22:23.877Z,20.28
2018-05-17T13:25:00.156Z,19.32
2018-05-17T13:27:35.621Z,18.78
2018-05-17T13:30:10.570Z,17.31
2018-05-17T13:32:40.005Z,17.04
2018-05-17T13:35:16.868Z,16.44
2018-05-17T13:37:51.758Z,16.21
2018-05-17T13:40:25.868Z,16.08
2018-05-17T13:42:55.483Z,15.87
2018-05-17T13:45:28.219Z,15.72
2018-05-17T13:48:01.897Z,15.68
2018-05-17T13:50:34.733Z,15.59
2018-05-17T13:53:03.941Z,15.69
2018-05-17T13:55:37.131Z,15.51
2018-05-17T13:58:05.463Z,15.61
2018-05-17T14:00:34.711Z,15.69
2018-05-17T14:03:02.996Z,16.02
2018-05-17T14:05:44.120Z,16.21
2018-05-17T14:08:12.451Z,16.33
2018-05-17T14:10:41.056Z,17.08
2018-05-17T14:13:13.041Z,17.42
2018-05-17T14:15:41.359Z,18.33
2018-05-17T14:18:13.567Z,19.23
2018-05-17T14:20:52.850Z,19.66
2018-05-17T14:23:21.156Z,19.57
2018-05-17T14:25:56.138Z,19.17
2018-05-17T14:28:24.485Z,19.22
2018-05-17T14:30:54.501Z,18.44
2018-05-17T14:33:31.594Z,19.35
2018-05-17T14:36:05.300Z,22.21
2018-05-17T14:38:39.927Z,22.21
2018-05-17T14:41:13.795Z,22.28
2018-05-17T14:43:53.132Z,20.28
2018-05-17T14:46:21.505Z,20.79
2018-05-17T14:48:55.137Z,21.10
2018-05-17T14:51:27.895Z,19.83
2018-05-17T14:54:07.215Z,19.55
2018-05-17T14:56:35.495Z,19.23
2018-05-17T14:59:11.438Z,19.48
2018-05-17T15:01:39.771Z,20.19
2018-05-17T15:04:08.821Z,19.20
2018-05-17T15:06:39.087Z,20.13
2018-05-17T15:09:08.253Z,19.89
2018-05-17T15:11:41.271Z,18.96
2018-05-17T15:14:16.742Z,19.24
2018-05-17T15:16:55.804Z,19.17
2018-05-17T15:19:36.634Z,18.69
2018-05-17T15:22:05.122Z,20.19
2018-05-17T15:24:41.013Z,20.28
2018-05-17T15:27:15.656Z,20.71
2018-05-17T15:30:02.211Z,21.04
2018-05-17T15:32:30.571Z,20.93
2018-05-17T15:35:06.890Z,20.20
2018-05-17T15:37:54.462Z,19.94
2018-05-17T15:40:31.570Z,20.64
2018-05-17T15:43:03.700Z,20.15
2018-05-17T15:45:34.712Z,20.41
2018-05-17T15:48:08.759Z,20.21
2018-05-17T15:50:38.018Z,20.62
2018-05-17T15:53:11.531Z,20.14
2018-05-17T15:55:45.972Z,20.58
2018-05-17T15:58:19.953Z,21.43
2018-05-17T16:00:52.295Z,22.28
2018-05-17T16:03:25.727Z,20.54
2018-05-17T16:06:18.078Z,20.70
2018-05-17T16:08:58.531Z,21.48
2018-05-17T16:11:38.512Z,21.92
2018-05-17T16:14:16.925Z,22.20
2018-05-17T16:16:54.162Z,22.73
2018-05-17T16:19:26.072Z,21.89
2018-05-17T16:21:59.068Z,20.47
2018-05-17T16:24:31.725Z,19.57
2018-05-17T16:27:07.101Z,19.81
2018-05-17T16:29:39.448Z,19.54
2018-05-17T16:32:14.980Z,18.99
2018-05-17T16:34:45.381Z,18.67
2018-05-17T16:37:13.677Z,18.69
2018-05-17T16:39:49.102Z,18.88
2018-05-17T16:42:23.105Z,17.90
2018-05-17T16:44:56.666Z,18.40
2018-05-17T16:47:33.072Z,17.93
2018-05-17T16:50:15.735Z,17.61
2018-05-17T16:52:58.455Z,17.88
2018-05-17T16:55:46.857Z,17.87
2018-05-17T16:58:17.083Z,17.44
2018-05-17T17:00:50.169Z,17.59
2018-05-17T17:03:23.058Z,17.58
2018-05-17T17:05:52.375Z,17.75
2018-05-17T17:08:20.777Z,17.46
2018-05-17T17:11:08.797Z,17.32
2018-05-17T17:13:40.938Z,17.26
2018-05-17T17:16:10.386Z,17.25
2018-05-17T17:18:43.552Z,17.27
2018-05-17T17:21:13.108Z,17.18
2018-05-17T17:23:48.439Z,17.30
2018-05-17T17:26:24.695Z,17.34
2018-05-17T17:28:55.978Z,17.37
2018-05-17T17:31:31.192Z,17.58
2018-05-17T17:34:06.757Z,17.54
2018-05-17T17:36:36.004Z,17.37
2018-05-17T17:39:17.264Z,17.76
2018-05-17T17:41:50.387Z,17.81
2018-05-17T17:44:19.568Z,17.56
2018-05-17T17:47:03.058Z,17.10
2018-05-17T17:49:32.433Z,16.88
2018-05-17T17:52:10.806Z,16.71
2018-05-17T17:54:39.489Z,16.68
2018-05-17T17:57:09.590Z,16.58
2018-05-17T17:59:59.419Z,16.45
2018-05-17T18:02:33.439Z,16.40
2018-05-17T18:05:08.056Z,16.31
2018-05-17T18:07:40.703Z,16.35
2018-05-17T18:10:11.028Z,16.27
2018-05-17T18:12:54.293Z,16.16
2018-05-17T18:15:36.413Z,16.13
2018-05-17T18:18:06.716Z,15.99
2018-05-17T18:20:35.957Z,15.92
2018-05-17T18:23:14.923Z,15.81
2018-05-17T18:25:44.356Z,15.69
2018-05-17T18:28:20.932Z,15.60
2018-05-17T18:31:04.634Z,15.57
2018-05-17T18:33:38.493Z,15.48
2018-05-17T18:36:16.839Z,15.43
2018-05-17T18:38:53.673Z,15.42
2018-05-17T18:41:36.000Z,15.38
2018-05-17T18:44:31.030Z,15.29
2018-05-17T18:49:49.082Z,15.20
2018-05-17T18:52:25.979Z,15.17
2018-05-17T18:55:02.312Z,15.12
2018-05-17T18:58:02.054Z,15.08
2018-05-17T19:00:33.369Z,15.09
2018-05-17T19:03:23.699Z,15.04
2018-05-17T19:05:58.950Z,14.98
2018-05-17T19:08:45.884Z,15.00
2018-05-17T19:11:24.775Z,14.97
2018-05-17T19:14:06.311Z,15.00
2018-05-17T19:16:52.902Z,14.98
2018-05-17T19:19:23.251Z,14.93
2018-05-17T19:22:02.673Z,14.94
2018-05-17T19:24:57.895Z,14.94
2018-05-17T19:27:29.644Z,14.91
2018-05-17T19:30:02.776Z,14.89
2018-05-17T19:32:32.103Z,14.89
2018-05-17T19:35:01.338Z,14.87
2018-05-17T19:37:29.651Z,14.84
2018-05-17T19:39:59.010Z,14.80
2018-05-17T19:42:34.882Z,14.79
2018-05-17T19:45:05.851Z,14.77
2018-05-17T19:47:35.140Z,14.77
2018-05-17T19:50:10.858Z,14.77
2018-05-17T19:52:43.783Z,14.75
2018-05-17T19:55:12.088Z,14.72
2018-05-17T19:57:46.633Z,14.67
2018-05-17T20:00:14.986Z,14.65
2018-05-17T20:02:45.409Z,14.66
2018-05-17T20:05:14.510Z,14.70
2018-05-17T20:07:47.920Z,14.68
2018-05-17T20:10:16.779Z,14.65
2018-05-17T20:12:45.932Z,14.66
2018-05-17T20:15:18.834Z,14.63
2018-05-17T20:17:52.165Z,14.60
2018-05-17T20:20:25.123Z,14.60
2018-05-17T20:22:56.349Z,14.57
2018-05-17T20:25:25.337Z,14.54
2018-05-17T20:27:55.527Z,14.52
2018-05-17T20:30:32.373Z,14.49
2018-05-17T20:33:18.952Z,14.44
2018-05-17T20:35:51.435Z,14.39
2018-05-17T20:38:21.758Z,14.37
2018-05-17T20:40:51.396Z,14.37
2018-05-17T20:43:19.680Z,14.35
2018-05-17T20:45:50.298Z,14.34
2018-05-17T20:48:18.565Z,14.31
2018-05-17T20:50:48.872Z,14.30
2018-05-17T20:53:17.156Z,14.30
2018-05-17T20:55:46.576Z,14.29
2018-05-17T20:58:17.058Z,14.28
2018-05-17T21:00:46.453Z,14.25
2018-05-17T21:03:28.955Z,14.23
2018-05-17T21:05:59.078Z,14.20
2018-05-17T21:08:28.356Z,14.17
2018-05-17T21:10:58.321Z,14.15
2018-05-17T21:13:26.615Z,14.09
2018-05-17T21:15:59.138Z,14.01
2018-05-17T21:18:29.399Z,13.96
2018-05-17T21:20:58.759Z,13.90
2018-05-17T21:23:34.155Z,13.83
2018-05-17T21:26:07.271Z,13.78
2018-05-17T21:28:35.556Z,13.77
2018-05-17T21:31:06.075Z,13.76
2018-05-17T21:33:37.876Z,13.76
2018-05-17T21:36:10.763Z,13.75
2018-05-17T21:38:44.019Z,13.72
2018-05-17T21:41:13.719Z,13.67
2018-05-17T21:43:48.786Z,13.58
2018-05-17T21:46:18.334Z,13.50
2018-05-17T21:49:05.904Z,13.47
2018-05-17T21:51:37.651Z,13.38
2018-05-17T21:54:06.004Z,13.32
2018-05-17T21:56:48.306Z,13.24
2018-05-17T21:59:20.706Z,13.16
2018-05-17T22:01:54.860Z,13.09
2018-05-17T22:04:26.245Z,12.98
2018-05-17T22:06:59.492Z,12.91
2018-05-17T22:09:48.039Z,12.79
2018-05-17T22:12:21.118Z,12.78
2018-05-17T22:14:50.267Z,12.76
2018-05-17T22:17:20.345Z,12.71
2018-05-17T22:20:00.655Z,12.70
2018-05-17T22:22:40.891Z,12.75
2018-05-17T22:25:15.883Z,12.76
2018-05-17T22:27:49.380Z,12.75
2018-05-17T22:30:23.520Z,12.74
2018-05-17T22:32:52.040Z,12.72
2018-05-17T22:35:20.345Z,12.72
2018-05-17T22:38:03.134Z,12.74
2018-05-17T22:40:38.870Z,12.73
2018-05-17T22:43:08.235Z,12.69
2018-05-17T22:45:45.642Z,12.64
2018-05-17T22:48:21.502Z,12.58
2018-05-17T22:50:51.354Z,12.51
2018-05-17T22:53:19.680Z,12.47
2018-05-17T22:55:49.487Z,12.41
2018-05-17T22:58:34.654Z,12.38
2018-05-17T23:01:04.751Z,12.38
2018-05-17T23:03:33.007Z,12.34
2018-05-17T23:06:11.453Z,12.31
2018-05-17T23:08:46.299Z,12.17
2018-05-17T23:11:16.619Z,12.08
2018-05-17T23:13:47.658Z,12.05
2018-05-17T23:16:20.011Z,11.99
2018-05-17T23:18:49.787Z,11.92
2018-05-17T23:21:22.623Z,11.93
2018-05-17T23:23:55.284Z,11.95
2018-05-17T23:26:24.628Z,11.94
2018-05-17T23:28:56.044Z,11.93
2018-05-17T23:31:27.107Z,11.96
2018-05-17T23:33:55.347Z,11.99
2018-05-17T23:36:23.625Z,11.98
2018-05-17T23:38:53.047Z,12.06
2018-05-17T23:41:43.704Z,12.11
2018-05-17T23:44:16.720Z,12.08
2018-05-17T23:46:45.219Z,12.03
2018-05-17T23:49:20.845Z,11.99
2018-05-17T23:51:49.124Z,11.91
2018-05-17T23:54:17.379Z,11.83
2018-05-17T23:56:56.303Z,11.76
2018-05-17T23:59:25.629Z,11.68
